Time;durP1;ratioP1;P1;durP2;ratioP2;P2;SDS_P1;SDS_P2;PMS_P1;PMS_P2;Temp;Humidity;BMP_temperature;BMP_pressure;BME280_temperature;BME280_humidity;BME280_pressure;Samples;Min_cycle;Max_cycle;Signal;HPM_P1;HPM_P2
2023/07/18 00:01:09;;;;;;;13.70;8.45;;;;;;;18.63;100.00;-18528.44;5081896;28;20044;-75
2023/07/18 00:03:34;;;;;;;18.10;9.20;;;;;;;18.48;100.00;-18524.47;5077358;28;20047;-78
2023/07/18 00:05:59;;;;;;;13.45;8.80;;;;;;;18.44;100.00;-18523.25;5081401;28;20123;-76
2023/07/18 00:08:25;;;;;;;13.15;8.27;;;;;;;18.50;100.00;-18524.91;5080234;28;20044;-77
2023/07/18 00:10:50;;;;;;;14.20;8.40;;;;;;;18.53;100.00;-18525.72;5081487;28;20077;-76
2023/07/18 00:13:15;;;;;;;14.07;8.43;;;;;;;18.47;100.00;-18524.06;5076667;28;20052;-76
2023/07/18 00:15:41;;;;;;;13.77;7.93;;;;;;;18.43;100.00;-18523.13;5079056;28;20037;-77
2023/07/18 00:18:07;;;;;;;12.60;7.85;;;;;;;18.53;100.00;-18525.56;5083244;28;20042;-77
2023/07/18 00:20:32;;;;;;;12.98;7.97;;;;;;;18.40;100.00;-18522.16;5076015;28;20101;-76
2023/07/18 00:22:59;;;;;;;15.02;8.45;;;;;;;18.47;100.00;-18524.06;5076837;28;20400;-78
2023/07/18 00:25:24;;;;;;;11.45;8.00;;;;;;;18.53;100.00;-18525.72;5079133;28;20551;-77
2023/07/18 00:27:51;;;;;;;14.45;9.27;;;;;;;18.29;100.00;-18519.31;5075391;28;20086;-76
2023/07/18 00:30:17;;;;;;;14.45;9.15;;;;;;;18.27;100.00;-18518.91;5079602;28;20082;-77
2023/07/18 00:32:44;;;;;;;14.52;8.68;;;;;;;18.35;100.00;-18520.94;5057292;28;20139;-78
2023/07/18 00:35:11;;;;;;;13.70;8.15;;;;;;;18.26;100.00;-18518.63;5081972;28;20123;-77
2023/07/18 00:37:38;;;;;;;13.98;8.02;;;;;;;18.22;100.00;-18517.53;5076571;28;20549;-76
2023/07/18 00:40:11;;;;;;;17.42;9.57;;;;;;;18.32;100.00;-18519.97;5079179;28;20052;-76
2023/07/18 00:42:41;;;;;;;12.60;8.75;;;;;;;18.37;100.00;-18521.34;5077806;28;20546;-78
2023/07/18 00:45:08;;;;;;;16.17;9.77;;;;;;;18.40;100.00;-18522.31;5063945;28;20063;-77
2023/07/18 00:47:40;;;;;;;14.05;8.85;;;;;;;18.46;100.00;-18523.94;5079693;28;20132;-76
2023/07/18 00:50:11;;;;;;;16.10;9.23;;;;;;;18.54;100.00;-18525.84;5081683;28;20036;-76
2023/07/18 00:52:43;;;;;;;14.27;8.35;;;;;;;18.64;100.00;-18528.72;5077631;28;20587;-77
2023/07/18 00:55:10;;;;;;;13.80;9.50;;;;;;;18.60;100.00;-18527.47;5081784;28;20043;-77
2023/07/18 00:57:38;;;;;;;13.68;9.05;;;;;;;18.67;100.00;-18529.38;5075600;28;20044;-76
2023/07/18 01:00:11;;;;;;;12.52;8.18;;;;;;;18.56;100.00;-18526.53;5077241;28;20468;-76
2023/07/18 01:02:40;;;;;;;15.02;9.20;;;;;;;18.54;100.00;-18525.97;5081406;28;20079;-76
2023/07/18 01:05:07;;;;;;;16.48;8.48;;;;;;;18.58;100.00;-18527.06;5078127;28;20041;-76
2023/07/18 01:07:34;;;;;;;15.40;9.05;;;;;;;18.41;100.00;-18522.44;5078877;28;20056;-76
2023/07/18 01:10:23;;;;;;;12.40;7.88;;;;;;;18.38;100.00;-18521.63;5074308;28;20049;-76
2023/07/18 01:12:55;;;;;;;;;;;;;;;18.35;100.00;-18520.94;5075878;28;20512;-77
2023/07/18 01:15:21;;;;;;;15.45;8.60;;;;;;;18.23;100.00;-18517.81;5078714;28;19993;-77
2023/07/18 01:17:49;;;;;;;14.38;8.02;;;;;;;18.05;100.00;-18512.91;5076868;28;20076;-76
2023/07/18 01:20:36;;;;;;;14.55;8.15;;;;;;;18.13;100.00;-18514.94;5080246;28;20036;-76
2023/07/18 01:23:05;;;;;;;16.98;9.20;;;;;;;18.41;100.00;-18522.44;5061744;28;20115;-77
2023/07/18 01:25:30;;;;;;;;;;;;;;;18.36;100.00;-18521.06;5081888;28;20515;-77
2023/07/18 01:27:59;;;;;;;14.10;8.20;;;;;;;18.30;100.00;-18519.44;5079438;28;19959;-77
2023/07/18 01:30:26;;;;;;;14.13;8.52;;;;;;;18.19;100.00;-18516.72;5078083;28;20036;-78
2023/07/18 01:32:52;;;;;;;10.98;7.05;;;;;;;18.24;100.00;-18518.06;5070071;28;20059;-76
2023/07/18 01:35:20;;;;;;;13.65;7.50;;;;;;;18.35;100.00;-18520.94;5075559;28;20048;-76
2023/07/18 01:37:46;;;;;;;13.52;7.85;;;;;;;18.27;100.00;-18518.91;5080828;28;20040;-76
2023/07/18 01:40:14;;;;;;;12.68;7.10;;;;;;;18.28;100.00;-18519.03;5079740;28;20040;-76
2023/07/18 01:42:40;;;;;;;10.48;6.88;;;;;;;18.34;100.00;-18520.66;5082279;28;20040;-75
2023/07/18 01:45:06;;;;;;;16.30;8.50;;;;;;;18.32;100.00;-18520.13;5079004;28;20044;-76
2023/07/18 01:47:32;;;;;;;13.60;7.68;;;;;;;18.23;100.00;-18517.81;5073849;28;20036;-76
2023/07/18 01:49:59;;;;;;;12.63;7.45;;;;;;;18.03;100.00;-18512.34;5081728;28;20131;-77
2023/07/18 01:52:26;;;;;;;12.77;7.43;;;;;;;18.08;100.00;-18513.56;5082067;28;20043;-77
2023/07/18 01:54:53;;;;;;;16.17;7.78;;;;;;;18.17;100.00;-18516.03;5076249;28;20054;-76
2023/07/18 01:57:18;;;;;;;11.80;7.95;;;;;;;18.24;100.00;-18517.94;5080683;28;20097;-77
2023/07/18 01:59:44;;;;;;;12.90;7.35;;;;;;;18.24;100.00;-18518.06;5076617;28;20044;-75
2023/07/18 02:02:09;;;;;;;16.52;7.75;;;;;;;18.22;100.00;-18517.53;5082583;28;20066;-78
2023/07/18 02:04:34;;;;;;;13.07;7.78;;;;;;;18.30;100.00;-18519.44;5074031;28;20041;-78
2023/07/18 02:07:00;;;;;;;15.90;7.70;;;;;;;18.35;100.00;-18520.94;5079197;28;20131;-75
2023/07/18 02:09:25;;;;;;;14.35;6.90;;;;;;;18.22;100.00;-18517.53;5079112;28;20067;-77
2023/07/18 02:11:50;;;;;;;9.50;6.82;;;;;;;18.29;100.00;-18519.31;5072012;28;20061;-77
2023/07/18 02:14:19;;;;;;;12.52;7.18;;;;;;;18.35;100.00;-18520.94;5075343;28;20072;-78
2023/07/18 02:16:45;;;;;;;12.98;7.10;;;;;;;18.27;100.00;-18518.91;5075564;28;20643;-78
2023/07/18 02:19:10;;;;;;;11.23;6.90;;;;;;;18.43;100.00;-18522.97;5072184;28;20033;-78
2023/07/18 02:21:35;;;;;;;13.25;6.50;;;;;;;18.42;100.00;-18522.72;5077943;28;20028;-75
2023/07/18 02:24:02;;;;;;;13.25;6.30;;;;;;;18.46;100.00;-18523.81;5078504;28;20040;-76
2023/07/18 02:26:27;;;;;;;11.48;6.45;;;;;;;18.42;100.00;-18522.72;5073405;28;20047;-76
2023/07/18 02:28:54;;;;;;;10.63;6.32;;;;;;;18.51;100.00;-18525.16;5057840;28;20062;-75
2023/07/18 02:31:19;;;;;;;11.65;5.97;;;;;;;18.34;100.00;-18520.53;5074289;28;20036;-75
2023/07/18 02:33:44;;;;;;;11.88;6.57;;;;;;;18.39;100.00;-18521.91;5080178;28;20411;-77
2023/07/18 02:36:11;;;;;;;10.27;5.85;;;;;;;18.39;100.00;-18522.03;5076854;28;20050;-77
2023/07/18 02:38:37;;;;;;;12.18;6.85;;;;;;;18.32;100.00;-18519.97;5058826;28;20096;-79
2023/07/18 02:41:02;;;;;;;11.60;6.38;;;;;;;18.31;100.00;-18519.72;5075855;28;20048;-77
2023/07/18 02:43:27;;;;;;;13.55;6.80;;;;;;;18.25;100.00;-18518.34;5083271;28;20091;-78
2023/07/18 02:45:53;;;;;;;9.25;6.10;;;;;;;18.13;100.00;-18514.94;5079005;28;20036;-77
2023/07/18 02:48:18;;;;;;;12.88;7.10;;;;;;;18.12;100.00;-18514.66;5080459;28;20044;-76
2023/07/18 02:50:44;;;;;;;11.32;6.35;;;;;;;17.94;100.00;-18510.03;5072398;28;20512;-76
2023/07/18 02:53:10;;;;;;;13.95;6.63;;;;;;;18.00;100.00;-18511.53;5077883;28;20047;-75
2023/07/18 02:55:35;;;;;;;13.02;7.25;;;;;;;18.04;100.00;-18512.63;5078676;28;20498;-77
2023/07/18 02:58:01;;;;;;;12.63;6.45;;;;;;;18.10;100.00;-18514.13;5077076;28;20151;-75
2023/07/18 03:00:26;;;;;;;12.45;7.20;;;;;;;18.09;100.00;-18513.97;5079711;28;20115;-77
2023/07/18 03:02:52;;;;;;;10.00;7.13;;;;;;;18.09;100.00;-18513.97;5074889;28;20042;-77
2023/07/18 03:05:22;;;;;;;11.70;6.90;;;;;;;18.10;100.00;-18514.25;5075743;28;20041;-76
2023/07/18 03:07:48;;;;;;;13.68;6.97;;;;;;;17.98;100.00;-18510.97;5075955;28;20044;-76
2023/07/18 03:10:13;;;;;;;10.82;6.93;;;;;;;17.95;100.00;-18510.16;5078193;28;20044;-77
2023/07/18 03:12:40;;;;;;;13.68;7.90;;;;;;;17.95;100.00;-18510.31;5064533;28;20496;-77
2023/07/18 03:15:08;;;;;;;11.48;6.95;;;;;;;17.73;100.00;-18504.44;5081781;28;20048;-77
2023/07/18 03:17:35;;;;;;;13.90;8.02;;;;;;;17.80;100.00;-18506.34;5082732;28;20050;-76
2023/07/18 03:20:00;;;;;;;12.05;8.15;;;;;;;17.75;100.00;-18504.84;5075290;28;20041;-74
2023/07/18 03:22:25;;;;;;;12.90;8.20;;;;;;;17.75;100.00;-18504.84;5081535;28;20028;-75
2023/07/18 03:24:54;;;;;;;13.75;7.88;;;;;;;17.77;100.00;-18505.53;5080643;28;20069;-77
2023/07/18 03:27:20;;;;;;;;;;;;;;;17.99;100.00;-18511.25;5064880;28;20036;-78
2023/07/18 03:29:45;;;;;;;17.95;8.95;;;;;;;17.92;100.00;-18509.34;5066422;28;19969;-75
2023/07/18 03:32:10;;;;;;;16.30;7.90;;;;;;;17.93;100.00;-18509.75;5076724;28;20400;-77
2023/07/18 03:34:36;;;;;;;14.40;7.95;;;;;;;17.91;100.00;-18509.06;5080171;28;20086;-76
2023/07/18 03:37:01;;;;;;;15.02;7.80;;;;;;;17.99;100.00;-18511.41;5079980;28;20047;-74
2023/07/18 03:39:26;;;;;;;15.05;8.30;;;;;;;17.91;100.00;-18509.22;5079865;28;20097;-77
2023/07/18 03:41:52;;;;;;;15.15;9.07;;;;;;;17.99;100.00;-18511.41;5074543;28;20109;-78
2023/07/18 03:44:17;;;;;;;15.52;8.75;;;;;;;17.99;100.00;-18511.25;5080325;28;20040;-79
2023/07/18 03:46:42;;;;;;;19.25;9.95;;;;;;;17.86;100.00;-18507.72;5080563;28;20060;-76
2023/07/18 03:49:08;;;;;;;18.15;9.93;;;;;;;17.91;100.00;-18509.06;5076960;28;20068;-78
2023/07/18 03:51:33;;;;;;;15.45;9.00;;;;;;;17.85;100.00;-18507.56;5068400;28;20036;-76
2023/07/18 03:53:59;;;;;;;19.38;9.82;;;;;;;17.93;100.00;-18509.63;5085169;28;20115;-77
2023/07/18 03:56:24;;;;;;;15.57;9.25;;;;;;;18.04;100.00;-18512.63;5083502;28;20080;-77
2023/07/18 03:58:50;;;;;;;20.48;11.43;;;;;;;18.02;100.00;-18512.22;5083931;28;20070;-78
2023/07/18 04:01:15;;;;;;;20.33;9.93;;;;;;;18.20;100.00;-18516.97;5085446;28;20043;-75
2023/07/18 04:03:41;;;;;;;18.88;10.85;;;;;;;18.07;100.00;-18513.44;5083795;28;20059;-78
2023/07/18 04:06:06;;;;;;;15.75;9.80;;;;;;;18.19;100.00;-18516.56;5079719;28;20072;-76
2023/07/18 04:08:32;;;;;;;20.13;10.40;;;;;;;18.01;100.00;-18511.94;5078738;28;20044;-77
2023/07/18 04:10:58;;;;;;;17.33;10.18;;;;;;;18.08;100.00;-18513.72;5083163;28;20036;-76
2023/07/18 04:13:25;;;;;;;18.67;11.40;;;;;;;18.01;100.00;-18511.81;5065540;28;20040;-75
2023/07/18 04:15:53;;;;;;;21.90;12.00;;;;;;;17.87;100.00;-18508.13;5082904;28;20163;-78
2023/07/18 04:18:18;;;;;;;20.38;12.05;;;;;;;17.81;100.00;-18506.47;5087421;28;20036;-78
2023/07/18 04:20:44;;;;;;;21.83;12.00;;;;;;;17.92;100.00;-18509.34;5084758;28;20036;-75
2023/07/18 04:23:09;;;;;;;21.92;12.02;;;;;;;17.91;100.00;-18509.06;5083285;28;20064;-78
2023/07/18 04:25:54;;;;;;;26.02;14.35;;;;;;;18.14;100.00;-18515.22;5087647;28;20097;-78
2023/07/18 04:28:19;;;;;;;19.65;12.18;;;;;;;18.24;100.00;-18518.06;5075493;28;20104;-78
2023/07/18 04:30:44;;;;;;;18.77;11.60;;;;;;;18.32;100.00;-18519.97;5084464;28;20058;-78
2023/07/18 04:33:12;;;;;;;23.58;12.63;;;;;;;18.40;100.00;-18522.16;5083977;28;20093;-76
2023/07/18 04:35:38;;;;;;;20.52;12.32;;;;;;;18.40;100.00;-18522.31;5084199;28;20332;-78
2023/07/18 04:38:03;;;;;;;19.42;12.68;;;;;;;18.46;100.00;-18523.81;5085027;28;20127;-78
2023/07/18 04:40:28;;;;;;;23.55;13.32;;;;;;;18.65;100.00;-18528.97;5088649;28;20054;-78
2023/07/18 04:42:54;;;;;;;20.30;12.65;;;;;;;18.58;100.00;-18526.94;5081223;28;20124;-78
2023/07/18 04:45:19;;;;;;;21.90;12.60;;;;;;;18.58;100.00;-18527.06;5085733;28;20040;-73
2023/07/18 04:47:44;;;;;;;19.90;12.48;;;;;;;18.62;100.00;-18528.16;5080049;28;20040;-75
2023/07/18 04:50:10;;;;;;;23.92;12.35;;;;;;;18.61;100.00;-18527.75;5084327;28;20083;-78
2023/07/18 04:52:36;;;;;;;21.35;12.85;;;;;;;18.70;100.00;-18530.34;5084882;28;20044;-77
2023/07/18 04:55:02;;;;;;;22.65;12.55;;;;;;;18.82;100.00;-18533.34;5078141;28;20048;-76
2023/07/18 04:57:28;;;;;;;21.98;12.50;;;;;;;18.84;100.00;-18534.03;5078192;28;20044;-77
2023/07/18 04:59:53;;;;;;;20.08;11.85;;;;;;;18.93;100.00;-18536.50;5076778;28;20050;-76
2023/07/18 05:02:19;;;;;;;17.35;11.30;;;;;;;19.09;100.00;-18540.72;5078111;28;20040;-76
2023/07/18 05:04:44;;;;;;;18.50;11.48;;;;;;;19.19;100.00;-18543.16;5078165;28;20063;-76
2023/07/18 05:07:10;;;;;;;22.70;11.93;;;;;;;19.17;100.00;-18542.75;5057795;28;20176;-77
2023/07/18 05:09:35;;;;;;;20.15;11.38;;;;;;;19.08;100.00;-18540.44;5083657;28;20105;-75
2023/07/18 05:12:00;;;;;;;19.63;12.02;;;;;;;19.19;100.00;-18543.31;5082314;28;20151;-77
2023/07/18 05:14:26;;;;;;;20.90;11.85;;;;;;;19.24;100.00;-18544.53;5081104;28;20126;-77
2023/07/18 05:16:51;;;;;;;18.45;10.10;;;;;;;19.06;100.00;-18539.75;5082040;28;20048;-76
2023/07/18 05:19:17;;;;;;;17.58;11.48;;;;;;;19.09;100.00;-18540.56;5080320;28;20292;-75
2023/07/18 05:21:42;;;;;;;19.83;11.70;;;;;;;19.16;100.00;-18542.63;5080720;28;20040;-78
2023/07/18 05:24:08;;;;;;;17.17;10.48;;;;;;;19.19;100.00;-18543.31;5081611;28;20445;-76
2023/07/18 05:26:33;;;;;;;17.90;11.52;;;;;;;19.21;100.00;-18543.72;5083569;28;20449;-76
2023/07/18 05:28:58;;;;;;;19.23;11.15;;;;;;;19.28;100.00;-18545.63;5076870;28;20040;-76
2023/07/18 05:31:24;;;;;;;18.42;10.63;;;;;;;19.47;100.00;-18550.78;5063627;28;20051;-77
2023/07/18 05:33:50;;;;;;;16.30;11.05;;;;;;;19.32;100.00;-18546.72;5084110;28;20549;-76
2023/07/18 05:36:16;;;;;;;17.35;11.65;;;;;;;19.45;100.00;-18550.09;5082377;28;20570;-76
2023/07/18 05:38:42;;;;;;;18.13;10.38;;;;;;;19.51;100.00;-18551.88;5076002;28;20179;-76
2023/07/18 05:41:08;;;;;;;15.88;10.23;;;;;;;19.40;100.00;-18548.88;5078202;28;20040;-76
2023/07/18 05:43:33;;;;;;;17.90;9.82;;;;;;;19.55;100.00;-18552.97;5074058;28;20043;-76
2023/07/18 05:45:59;;;;;;;19.98;9.77;;;;;;;19.75;100.00;-18558.16;5073202;28;20036;-76
2023/07/18 05:48:27;;;;;;;15.88;9.68;;;;;;;19.78;100.00;-18559.09;5079839;28;20044;-77
2023/07/18 05:50:53;;;;;;;16.75;9.80;;;;;;;19.76;100.00;-18558.56;5084654;28;20511;-76
2023/07/18 05:53:18;;;;;;;17.75;9.75;;;;;;;19.88;100.00;-18561.69;5082836;28;20123;-75
2023/07/18 05:55:44;;;;;;;13.98;9.13;;;;;;;20.07;100.00;-18566.72;5076153;28;20089;-75
2023/07/18 05:58:09;;;;;;;16.88;9.68;;;;;;;19.99;100.00;-18564.56;5061215;28;20045;-77
2023/07/18 06:00:41;;;;;;;16.02;8.68;;;;;;;20.04;100.00;-18566.03;5073013;28;20044;-76
2023/07/18 06:03:07;;;;;;;17.42;9.35;;;;;;;20.19;100.00;-18569.84;5073239;28;20033;-76
2023/07/18 06:05:32;;;;;;;15.23;9.23;;;;;;;20.40;100.00;-18575.44;5081719;28;20046;-79
2023/07/18 06:07:58;;;;;;;18.02;9.25;;;;;;;20.44;100.00;-18576.53;5077815;28;20480;-76
2023/07/18 06:10:23;;;;;;;19.08;9.50;;;;;;;20.58;100.00;-18580.34;5083278;28;20545;-75
2023/07/18 06:12:49;;;;;;;16.02;8.82;;;;;;;20.55;100.00;-18579.38;5081449;28;20639;-79
2023/07/18 06:15:15;;;;;;;14.85;9.55;;;;;;;20.53;100.00;-18578.97;5080354;28;20384;-78
2023/07/18 06:17:40;;;;;;;14.18;8.55;;;;;;;20.60;100.00;-18580.75;5066343;28;20035;-78
2023/07/18 06:20:12;;;;;;;19.63;9.55;;;;;;;20.73;100.00;-18584.41;5077410;28;20115;-76
2023/07/18 06:22:37;;;;;;;18.65;8.48;;;;;;;20.70;100.00;-18583.59;5075570;28;20117;-78
2023/07/18 06:25:03;;;;;;;15.35;7.72;;;;;;;20.78;100.00;-18585.50;5083093;28;20134;-74
2023/07/18 06:27:28;;;;;;;14.13;8.30;;;;;;;20.92;100.00;-18589.31;5084072;28;20487;-74
2023/07/18 06:29:54;;;;;;;14.68;7.75;;;;;;;20.95;100.00;-18590.28;5082011;28;20044;-77
2023/07/18 06:32:21;;;;;;;13.27;8.50;;;;;;;21.04;100.00;-18592.44;5083305;28;20048;-76
2023/07/18 06:34:46;;;;;;;11.10;7.13;;;;;;;21.01;100.00;-18591.78;5070923;28;20040;-77
2023/07/18 06:37:12;;;;;;;12.68;7.45;;;;;;;21.07;100.00;-18593.41;5079131;28;20093;-75
2023/07/18 06:39:38;;;;;;;14.77;7.35;;;;;;;21.00;100.00;-18591.34;5080223;28;20078;-78
2023/07/18 06:42:05;;;;;;;12.75;6.93;;;;;;;21.14;100.00;-18595.31;5067767;28;20050;-76
2023/07/18 06:44:31;;;;;;;12.38;7.20;;;;;;;21.16;100.00;-18595.84;5070294;28;20036;-75
2023/07/18 06:46:56;;;;;;;12.75;7.00;;;;;;;21.24;100.00;-18597.88;5081407;28;20101;-75
2023/07/18 06:49:22;;;;;;;15.40;7.05;;;;;;;21.17;100.00;-18595.97;5086701;28;20036;-77
2023/07/18 06:51:49;;;;;;;13.00;7.72;;;;;;;21.52;100.00;-18605.22;5062639;28;20048;-76
2023/07/18 06:54:15;;;;;;;12.20;7.30;;;;;;;21.57;100.00;-18606.72;5083055;28;20136;-77
2023/07/18 06:56:42;;;;;;;17.35;8.00;;;;;;;21.59;100.00;-18607.28;5076860;28;20067;-76
2023/07/18 06:59:08;;;;;;;13.50;7.95;;;;;;;21.67;100.00;-18609.31;5064460;28;20036;-76
2023/07/18 07:01:34;;;;;;;13.48;7.72;;;;;;;21.60;100.00;-18607.41;5081272;28;20037;-76
2023/07/18 07:04:01;;;;;;;14.80;7.68;;;;;;;21.50;100.00;-18604.81;5081731;28;20040;-77
2023/07/18 07:06:26;;;;;;;12.30;7.15;;;;;;;21.63;100.00;-18608.22;5078541;28;20071;-76
2023/07/18 07:08:51;;;;;;;16.70;7.47;;;;;;;21.66;100.00;-18609.03;5081321;28;20127;-79
2023/07/18 07:11:17;;;;;;;16.15;7.10;;;;;;;21.76;100.00;-18611.63;5065429;28;20036;-76
2023/07/18 07:13:43;;;;;;;10.35;6.05;;;;;;;21.81;100.00;-18613.13;5064120;28;20052;-75
2023/07/18 07:16:08;;;;;;;11.07;6.10;;;;;;;21.83;100.00;-18613.66;5066047;28;20578;-75
2023/07/18 07:18:33;;;;;;;10.75;5.40;;;;;;;21.97;100.00;-18617.19;5080415;28;20039;-75
2023/07/18 07:21:00;;;;;;;13.68;6.15;;;;;;;21.90;100.00;-18615.44;5063005;28;20048;-75
2023/07/18 07:23:25;;;;;;;9.07;5.03;;;;;;;22.05;100.00;-18619.38;5068001;28;20040;-75
2023/07/18 07:25:51;;;;;;;10.90;5.20;;;;;;;22.25;100.00;-18624.66;5081198;28;20495;-76
2023/07/18 07:28:16;;;;;;;10.15;5.82;;;;;;;22.32;99.30;-18626.56;5080136;28;20048;-76
2023/07/18 07:30:42;;;;;;;10.70;4.82;;;;;;;22.38;98.70;-18628.06;5082245;28;20115;-77
2023/07/18 07:33:07;;;;;;;9.10;4.70;;;;;;;22.23;96.65;-18624.25;5086009;28;20978;-75
2023/07/18 07:35:33;;;;;;;7.78;4.05;;;;;;;22.42;94.24;-18629.16;5081411;28;20044;-76
2023/07/18 07:37:59;;;;;;;8.82;5.30;;;;;;;22.66;92.60;-18635.66;5082620;28;20043;-76
2023/07/18 07:40:24;;;;;;;9.98;4.47;;;;;;;22.88;93.24;-18641.50;5080215;28;20135;-76
2023/07/18 07:42:50;;;;;;;7.82;4.65;;;;;;;22.82;88.84;-18639.72;5077653;28;20032;-75
2023/07/18 07:45:16;;;;;;;8.90;4.18;;;;;;;22.80;88.77;-18639.31;5085108;28;20028;-77
2023/07/18 07:47:42;;;;;;;8.32;3.88;;;;;;;22.68;82.03;-18636.19;5077137;28;20136;-77
2023/07/18 07:50:08;;;;;;;6.85;3.60;;;;;;;22.92;87.47;-18642.59;5061776;28;20045;-78
2023/07/18 07:52:35;;;;;;;7.13;3.53;;;;;;;23.14;85.08;-18648.28;5076410;28;20037;-77
2023/07/18 07:55:00;;;;;;;7.50;3.05;;;;;;;23.02;78.65;-18645.16;5084317;28;20074;-77
2023/07/18 07:57:26;;;;;;;6.90;3.10;;;;;;;23.25;84.31;-18651.28;5088778;28;20032;-77
2023/07/18 07:59:51;;;;;;;8.48;3.50;;;;;;;23.27;79.08;-18651.69;5084202;28;20048;-77
2023/07/18 08:02:20;;;;;;;6.90;3.10;;;;;;;23.32;78.56;-18653.03;5083154;28;20044;-76
2023/07/18 08:04:47;;;;;;;6.13;2.83;;;;;;;23.50;79.19;-18657.78;5082405;28;20037;-76
2023/07/18 08:07:13;;;;;;;8.60;2.75;;;;;;;23.51;73.21;-18658.19;5081263;28;20032;-77
2023/07/18 08:09:38;;;;;;;5.18;2.55;;;;;;;23.76;71.91;-18664.84;5074600;28;20039;-76
2023/07/18 08:12:04;;;;;;;6.22;2.70;;;;;;;23.77;69.03;-18664.97;5082950;28;20500;-74
2023/07/18 08:14:31;;;;;;;9.00;2.75;;;;;;;23.69;74.11;-18662.81;5076379;28;20047;-74
2023/07/18 08:16:57;;;;;;;6.05;2.28;;;;;;;23.95;69.85;-18669.84;5083472;28;20123;-75
2023/07/18 08:19:22;;;;;;;7.25;2.95;;;;;;;23.97;67.34;-18670.41;5080987;28;20071;-77
2023/07/18 08:21:48;;;;;;;6.18;2.13;;;;;;;23.98;63.64;-18670.53;5078592;28;20029;-76
2023/07/18 08:24:14;;;;;;;6.65;2.20;;;;;;;24.01;61.95;-18671.34;5085650;28;20072;-79
2023/07/18 08:26:40;;;;;;;5.50;1.80;;;;;;;24.14;62.68;-18674.72;5075643;28;20047;-77
2023/07/18 08:29:05;;;;;;;3.05;1.85;;;;;;;24.22;65.04;-18676.91;5085749;28;20055;-77
2023/07/18 08:31:31;;;;;;;6.22;1.80;;;;;;;24.18;61.61;-18675.94;5079037;28;20090;-77
2023/07/18 08:33:56;;;;;;;5.10;1.90;;;;;;;24.27;59.29;-18678.38;5078827;28;20040;-77
2023/07/18 08:36:22;;;;;;;4.15;1.60;;;;;;;24.31;60.91;-18679.34;5073389;28;20029;-76
2023/07/18 08:38:50;;;;;;;5.00;1.85;;;;;;;24.21;57.56;-18676.63;5086847;28;20039;-76
2023/07/18 08:41:21;;;;;;;2.97;1.50;;;;;;;24.15;58.20;-18675.13;5083490;28;20044;-77
2023/07/18 08:43:48;;;;;;;3.88;1.40;;;;;;;24.46;57.80;-18683.28;5084428;28;20031;-76
2023/07/18 08:46:14;;;;;;;4.22;1.33;;;;;;;24.37;55.06;-18680.97;5084719;28;20060;-77
2023/07/18 08:48:44;;;;;;;3.67;1.40;;;;;;;24.54;57.06;-18685.56;5081535;28;20044;-76
2023/07/18 08:51:10;;;;;;;3.33;1.45;;;;;;;24.50;57.47;-18684.34;5078948;28;20044;-77
2023/07/18 08:53:36;;;;;;;5.18;2.25;;;;;;;24.70;57.28;-18689.63;5082241;28;20486;-77
2023/07/18 08:56:03;;;;;;;7.25;2.22;;;;;;;24.60;55.56;-18687.06;5078895;28;20135;-76
2023/07/18 08:58:28;;;;;;;5.15;1.80;;;;;;;24.50;55.92;-18684.34;5067476;28;20593;-77
2023/07/18 09:00:53;;;;;;;2.67;1.45;;;;;;;24.55;55.97;-18685.72;5078478;28;20044;-74
2023/07/18 09:03:19;;;;;;;2.47;0.82;;;;;;;24.59;53.30;-18686.66;5083539;28;20044;-76
2023/07/18 09:05:44;;;;;;;5.13;1.20;;;;;;;24.54;51.98;-18685.56;5081945;28;20054;-76
2023/07/18 09:08:10;;;;;;;3.33;1.00;;;;;;;24.62;52.46;-18687.47;5079199;28;20550;-77
2023/07/18 09:10:35;;;;;;;2.60;1.00;;;;;;;24.73;51.99;-18690.44;5085319;28;20050;-77
2023/07/18 09:13:02;;;;;;;3.47;1.30;;;;;;;25.03;55.01;-18698.44;5065132;28;20045;-77
2023/07/18 09:15:28;;;;;;;2.80;0.90;;;;;;;24.97;50.47;-18696.94;5081764;28;20563;-76
2023/07/18 09:17:54;;;;;;;5.40;1.20;;;;;;;25.03;52.32;-18698.31;5077495;28;20041;-75
2023/07/18 09:20:21;;;;;;;2.83;1.00;;;;;;;25.29;53.29;-18705.22;5077310;28;20119;-76
2023/07/18 09:22:46;;;;;;;2.60;0.95;;;;;;;25.29;53.18;-18705.34;5074544;28;21882;-77
2023/07/18 09:25:16;;;;;;;3.25;1.02;;;;;;;25.37;50.87;-18707.38;5077188;28;20040;-76
2023/07/18 09:27:41;;;;;;;4.10;0.95;;;;;;;25.46;49.22;-18709.69;5077354;28;20514;-75
2023/07/18 09:30:07;;;;;;;2.03;0.70;;;;;;;25.40;47.82;-18708.31;5076236;28;20052;-76
2023/07/18 09:32:33;;;;;;;3.25;0.80;;;;;;;25.37;47.36;-18707.50;5071643;28;20158;-76
2023/07/18 09:35:00;;;;;;;3.00;0.88;;;;;;;25.28;44.80;-18704.94;5060749;28;20784;-77
2023/07/18 09:37:26;;;;;;;1.80;0.75;;;;;;;25.54;47.61;-18711.84;5075891;28;20055;-76
2023/07/18 09:39:52;;;;;;;4.00;0.90;;;;;;;25.60;49.70;-18713.47;5076944;28;20040;-76
2023/07/18 09:42:18;;;;;;;2.65;0.60;;;;;;;25.53;45.39;-18711.72;5059670;28;20044;-76
2023/07/18 09:44:48;;;;;;;2.90;0.88;;;;;;;25.80;45.85;-18718.75;5075343;28;20040;-76
2023/07/18 09:47:15;;;;;;;3.17;0.80;;;;;;;25.84;47.00;-18719.84;5073926;28;20040;-77
2023/07/18 09:49:42;;;;;;;2.47;0.80;;;;;;;25.79;44.36;-18718.59;5074565;28;20123;-76
2023/07/18 09:52:08;;;;;;;4.32;1.42;;;;;;;25.91;44.53;-18721.59;5069740;28;20072;-77
2023/07/18 09:54:34;;;;;;;2.20;0.65;;;;;;;26.03;46.94;-18724.84;5068797;28;20071;-77
2023/07/18 09:57:02;;;;;;;4.45;0.88;;;;;;;26.05;44.73;-18725.50;5073813;28;20929;-76
2023/07/18 09:59:28;;;;;;;2.33;0.70;;;;;;;26.07;44.20;-18725.91;5072550;28;20048;-76
2023/07/18 10:01:54;;;;;;;1.33;0.60;;;;;;;26.01;42.82;-18724.44;5060252;28;20097;-77
2023/07/18 10:04:21;;;;;;;1.55;0.73;;;;;;;25.93;43.61;-18722.13;5076191;28;20137;-76
2023/07/18 10:06:47;;;;;;;1.42;0.68;;;;;;;26.07;44.45;-18725.91;5073614;28;20046;-77
2023/07/18 10:09:13;;;;;;;2.90;0.73;;;;;;;26.14;43.05;-18727.66;5080176;28;20051;-76
2023/07/18 10:11:57;;;;;;;2.97;0.70;;;;;;;26.21;43.98;-18729.69;5077991;28;20039;-76
2023/07/18 10:14:26;;;;;;;2.72;0.80;;;;;;;26.18;44.06;-18728.88;5056341;28;20130;-76
2023/07/18 10:16:55;;;;;;;1.70;0.60;;;;;;;26.29;42.53;-18731.84;5077376;28;20047;-76
2023/07/18 10:19:23;;;;;;;;;;;;;;;26.44;41.79;-18735.66;5074070;28;20040;-77
2023/07/18 10:21:51;;;;;;;1.00;0.50;;;;;;;26.47;42.13;-18736.44;5071004;28;19927;-76
2023/07/18 10:24:20;;;;;;;1.98;0.50;;;;;;;26.31;41.15;-18732.25;5075064;28;20059;-77
2023/07/18 10:26:48;;;;;;;0.75;0.35;;;;;;;26.31;40.51;-18732.41;5059466;28;20036;-76
2023/07/18 10:29:14;;;;;;;1.50;0.50;;;;;;;26.46;41.34;-18736.19;5077016;28;20051;-76
2023/07/18 10:31:39;;;;;;;1.63;0.50;;;;;;;26.43;40.10;-18735.50;5061702;28;20048;-76
2023/07/18 10:34:10;;;;;;;1.88;0.50;;;;;;;26.52;40.30;-18737.94;5075631;28;20040;-76
2023/07/18 10:36:37;;;;;;;3.40;0.70;;;;;;;26.34;39.23;-18733.22;5074806;28;20032;-75
2023/07/18 10:39:14;;;;;;;1.38;0.43;;;;;;;26.26;40.62;-18731.03;5074362;28;20437;-76
2023/07/18 10:41:43;;;;;;;1.50;0.43;;;;;;;26.13;40.95;-18727.53;5077440;28;20043;-76
2023/07/18 10:44:13;;;;;;;1.40;0.50;;;;;;;26.16;39.66;-18728.22;5075441;28;20503;-76
2023/07/18 10:46:39;;;;;;;1.77;0.35;;;;;;;26.19;40.13;-18729.03;5057071;28;20044;-75
2023/07/18 10:49:05;;;;;;;0.63;0.30;;;;;;;26.28;40.37;-18731.47;5075403;28;20064;-76
2023/07/18 10:51:32;;;;;;;0.95;0.38;;;;;;;26.27;40.69;-18731.31;5076096;28;20042;-76
2023/07/18 10:54:00;;;;;;;0.50;0.20;;;;;;;26.07;38.77;-18725.91;5075127;28;20098;-76
2023/07/18 10:56:27;;;;;;;2.08;0.52;;;;;;;26.25;40.70;-18730.78;5076930;28;20085;-76
2023/07/18 10:58:54;;;;;;;2.10;0.43;;;;;;;25.95;39.23;-18722.66;5078265;28;20052;-76
2023/07/18 11:01:23;;;;;;;1.65;0.55;;;;;;;26.53;40.94;-18738.22;5078649;28;20542;-76
2023/07/18 11:03:48;;;;;;;2.00;0.88;;;;;;;26.65;40.95;-18741.31;5081575;28;20068;-75
2023/07/18 11:06:17;;;;;;;3.03;0.55;;;;;;;26.62;39.87;-18740.50;5080072;28;20113;-76
2023/07/18 11:08:45;;;;;;;1.10;0.50;;;;;;;26.38;39.02;-18734.03;5079114;28;20117;-78
2023/07/18 11:11:14;;;;;;;1.70;0.60;;;;;;;26.27;38.71;-18731.19;5079293;28;20040;-77